Time;durP1;ratioP1;P1;durP2;ratioP2;P2;SDS_P1;SDS_P2;PMS_P1;PMS_P2;Temp;Humidity;BMP_temperature;BMP_pressure;BME280_temperature;BME280_humidity;BME280_pressure;Samples;Min_cycle;Max_cycle;Signal;HPM_P1;HPM_P2
2023/02/24 07:21:10;;;;;;;1.20;0.90;;;19.60;63.80;;;;;;4998060;23;20515;-91
2023/02/24 07:23:38;;;;;;;1.20;0.83;;;19.50;63.70;;;;;;4960421;29;20434;-92
2023/02/24 07:26:10;;;;;;;1.50;1.10;;;19.50;63.60;;;;;;4958848;29;20446;-93
2023/02/24 07:28:39;;;;;;;1.20;1.10;;;19.50;63.60;;;;;;4960694;29;20442;-94
2023/02/24 07:31:09;;;;;;;2.23;0.90;;;19.50;63.50;;;;;;4961447;29;20620;-95
2023/02/24 07:33:36;;;;;;;11.20;1.80;;;19.50;63.50;;;;;;4957009;29;20992;-94
2023/02/24 07:36:08;;;;;;;1.20;1.00;;;19.50;63.40;;;;;;4957798;29;20454;-95
2023/02/24 07:38:36;;;;;;;1.30;1.00;;;19.60;63.60;;;;;;4956474;29;20434;-94
2023/02/24 07:41:05;;;;;;;1.70;1.10;;;19.50;63.30;;;;;;4956388;29;20449;-94
2023/02/24 07:43:33;;;;;;;2.77;1.00;;;19.50;63.30;;;;;;4956297;29;20445;-94
2023/02/24 07:46:06;;;;;;;1.83;0.90;;;19.50;63.30;;;;;;4956287;29;20480;-94
2023/02/24 07:48:33;;;;;;;1.20;0.83;;;19.70;63.40;;;;;;4956625;29;20532;-94
2023/02/24 07:51:00;;;;;;;3.30;1.10;;;19.50;63.20;;;;;;4956212;29;20476;-94
2023/02/24 07:53:28;;;;;;;1.47;1.03;;;19.50;63.10;;;;;;4956688;28;20485;-94
2023/02/24 07:55:55;;;;;;;1.20;0.90;;;19.50;63.10;;;;;;4956418;29;20442;-94
2023/02/24 07:58:23;;;;;;;1.67;1.00;;;19.50;64.00;;;;;;4956511;29;20539;-94
2023/02/24 08:00:58;;;;;;;1.40;1.17;;;19.50;63.10;;;;;;4956149;29;20456;-95
2023/02/24 08:03:26;;;;;;;4.27;0.90;;;19.50;63.10;;;;;;4960934;29;20441;-96
2023/02/24 08:06:14;;;;;;;1.20;0.90;;;19.50;63.00;;;;;;4964411;28;20433;-95
2023/02/24 08:08:57;;;;;;;2.60;1.20;;;19.50;63.00;;;;;;4941557;29;20467;-93
2023/02/24 08:11:26;;;;;;;1.30;1.10;;;19.70;63.30;;;;;;4936600;29;20442;-94
2023/02/24 08:13:56;;;;;;;4.70;0.90;;;19.50;62.90;;;;;;4936745;29;20486;-94
2023/02/24 08:16:38;;;;;;;1.10;0.90;;;19.50;62.90;;;;;;4937324;29;20543;-91
2023/02/24 08:19:05;;;;;;;2.70;1.17;;;19.50;62.60;;;;;;4940015;29;20924;-92
2023/02/24 08:21:36;;;;;;;1.40;1.00;;;19.50;62.70;;;;;;4949905;29;20482;-91
2023/02/24 08:24:05;;;;;;;1.87;1.03;;;19.50;62.90;;;;;;4957907;29;20788;-91
2023/02/24 08:26:43;;;;;;;1.60;1.30;;;19.60;63.20;;;;;;4955963;29;20453;-91
2023/02/24 08:29:10;;;;;;;1.57;1.00;;;19.60;63.30;;;;;;4955671;29;20977;-90
2023/02/24 08:31:37;;;;;;;1.40;1.00;;;19.70;63.70;;;;;;4955431;29;20459;-93
2023/02/24 08:34:04;;;;;;;1.30;1.00;;;19.50;63.50;;;;;;4955500;29;20582;-91
2023/02/24 08:36:30;;;;;;;2.13;0.90;;;19.50;63.50;;;;;;4955306;29;21037;-91
2023/02/24 08:38:58;;;;;;;2.37;1.10;;;19.50;63.40;;;;;;4965587;28;20453;-90
2023/02/24 08:41:43;;;;;;;2.03;0.93;;;19.70;63.60;;;;;;4979742;28;20457;-90
2023/02/24 08:44:12;;;;;;;2.07;1.20;;;19.50;63.30;;;;;;4979703;28;20529;-89
2023/02/24 08:46:40;;;;;;;2.77;1.10;;;19.50;63.30;;;;;;4966768;28;20464;-90
2023/02/24 08:49:09;;;;;;;2.50;0.90;;;19.50;63.30;;;;;;4955174;29;20448;-92
2023/02/24 08:51:42;;;;;;;2.13;1.20;;;19.50;63.30;;;;;;4954875;29;20447;-90
2023/02/24 08:54:14;;;;;;;1.87;1.07;;;19.60;63.50;;;;;;4954931;29;20497;-90
2023/02/24 08:56:43;;;;;;;1.73;1.17;;;19.50;63.40;;;;;;4955415;29;20481;-90
2023/02/24 08:59:27;;;;;;;1.17;0.97;;;19.50;63.30;;;;;;4954937;29;20432;-93
2023/02/24 09:02:17;;;;;;;1.87;1.13;;;19.50;63.30;;;;;;4955075;29;20461;-90
2023/02/24 09:04:44;;;;;;;2.00;1.10;;;19.50;63.20;;;;;;4954612;29;20436;-90
2023/02/24 09:07:15;;;;;;;2.80;1.00;;;19.50;63.20;;;;;;4954780;29;20802;-90
2023/02/24 09:09:42;;;;;;;1.70;1.03;;;19.50;63.20;;;;;;4955514;29;20445;-90
2023/02/24 09:12:20;;;;;;;1.10;0.87;;;19.50;63.20;;;;;;4956515;29;20441;-90
2023/02/24 09:14:48;;;;;;;1.77;1.10;;;19.50;63.10;;;;;;4978729;28;20504;-92
2023/02/24 09:17:19;;;;;;;4.73;1.13;;;19.50;63.10;;;;;;4976295;28;20448;-90
2023/02/24 09:22:39;;;;;;;1.30;1.00;;;19.50;63.10;;;;;;4958106;29;20482;-90
2023/02/24 09:25:18;;;;;;;4.30;1.10;;;19.50;63.20;;;;;;4958340;29;20469;-92
2023/02/24 09:27:51;;;;;;;1.70;1.30;;;19.50;63.10;;;;;;4958281;29;20449;-90
2023/02/24 09:30:37;;;;;;;2.03;0.97;;;19.50;63.00;;;;;;4958082;29;20450;-91
2023/02/24 09:33:17;;;;;;;2.17;1.30;;;19.50;63.00;;;;;;4958154;29;20453;-93
2023/02/24 09:35:46;;;;;;;1.73;0.90;;;19.60;63.10;;;;;;4957829;29;20453;-91
2023/02/24 09:38:15;;;;;;;1.30;1.10;;;19.50;62.90;;;;;;4958071;29;20472;-90
2023/02/24 09:40:48;;;;;;;1.30;1.00;;;19.50;62.90;;;;;;4957721;29;20442;-90
2023/02/24 09:43:20;;;;;;;1.40;0.90;;;19.50;62.90;;;;;;4957941;29;20446;-90
2023/02/24 09:45:59;;;;;;;1.43;0.80;;;19.50;62.80;;;;;;4957856;29;20497;-93
2023/02/24 09:48:43;;;;;;;1.53;1.03;;;19.50;62.90;;;;;;4957809;29;20536;-90
2023/02/24 09:51:20;;;;;;;1.60;1.10;;;19.50;62.80;;;;;;4957909;29;20452;-93
2023/02/24 09:53:51;;;;;;;1.77;1.10;;;19.50;62.80;;;;;;4957594;29;20815;-93
2023/02/24 09:56:23;;;;;;;1.40;1.13;;;19.50;62.80;;;;;;4957594;29;20449;-90
2023/02/24 09:58:59;;;;;;;1.37;0.93;;;19.50;62.70;;;;;;4957673;29;20457;-90
2023/02/24 10:01:41;;;;;;;1.60;1.17;;;19.50;62.70;;;;;;4957475;29;20468;-90
2023/02/24 10:04:36;;;;;;;2.70;1.20;;;19.70;63.00;;;;;;4957291;29;20511;-90
2023/02/24 10:07:07;;;;;;;1.47;1.20;;;19.50;62.70;;;;;;4932465;29;20458;-90
2023/02/24 10:09:37;;;;;;;1.20;0.70;;;19.50;62.80;;;;;;4957696;29;20455;-91
2023/02/24 10:12:15;;;;;;;1.27;1.00;;;19.60;62.90;;;;;;4957330;29;20540;-90
2023/02/24 10:14:51;;;;;;;1.53;1.00;;;19.50;62.80;;;;;;4957074;29;20485;-90
2023/02/24 10:17:23;;;;;;;1.07;0.80;;;19.50;62.70;;;;;;4957218;29;20469;-90
2023/02/24 10:19:58;;;;;;;1.10;0.80;;;19.50;62.80;;;;;;4957338;29;20452;-90
2023/02/24 10:22:49;;;;;;;1.57;1.10;;;19.50;62.80;;;;;;4957178;29;20981;-91
2023/02/24 10:25:39;;;;;;;1.70;1.30;;;19.50;62.70;;;;;;4957430;29;20541;-91
2023/02/24 10:28:16;;;;;;;2.17;1.00;;;19.50;62.70;;;;;;4963431;28;20462;-87
2023/02/24 10:31:02;;;;;;;1.70;1.03;;;19.50;62.70;;;;;;4977942;28;20546;-91
2023/02/24 10:33:37;;;;;;;4.80;1.57;;;19.50;62.50;;;;;;4980619;28;20476;-88
2023/02/24 10:36:08;;;;;;;2.43;1.33;;;19.60;62.60;;;;;;4977120;28;20444;-95
2023/02/24 10:38:36;;;;;;;6.90;2.83;;;19.50;62.20;;;;;;4998468;23;20484;-85
2023/02/24 10:41:05;;;;;;;21.60;3.13;;;19.40;57.80;;;;;;5000925;28;20506;-87
2023/02/24 10:43:44;;;;;;;18.33;3.90;;;19.30;58.00;;;;;;5002876;28;20432;-87
2023/02/24 10:46:24;;;;;;;5.37;3.00;;;19.30;59.40;;;;;;4997892;28;20503;-88
2023/02/24 10:48:59;;;;;;;9.00;5.87;;;19.30;61.00;;;;;;4996629;28;20478;-92
2023/02/24 10:51:30;;;;;;;18.20;8.33;;;19.30;61.30;;;;;;4996215;28;20454;-89
2023/02/24 10:54:32;;;;;;;16.90;7.07;;;19.40;61.50;;;;;;4995884;28;20995;-93
2023/02/24 10:57:14;;;;;;;11.00;4.53;;;19.40;62.00;;;;;;4995855;28;21083;-90
2023/02/24 11:02:55;;;;;;;19.10;13.40;;;19.50;62.10;;;;;;4995920;28;20427;-88
2023/02/24 11:05:37;;;;;;;11.20;8.80;;;19.50;62.10;;;;;;4995999;28;20477;-86
2023/02/24 11:08:25;;;;;;;8.57;6.53;;;19.60;61.70;;;;;;4995715;28;20510;-88
2023/02/24 11:11:05;;;;;;;10.80;7.10;;;19.70;61.80;;;;;;4988495;28;20448;-92
2023/02/24 11:19:06;;;;;;;10.83;9.43;;;19.80;61.60;;;;;;4975825;28;20429;-88
2023/02/24 11:21:33;;;;;;;12.83;8.27;;;19.80;61.70;;;;;;4976276;28;20452;-88
2023/02/24 11:24:01;;;;;;;6.70;6.10;;;19.80;61.60;;;;;;4975447;28;20448;-88
2023/02/24 11:26:35;;;;;;;9.70;6.70;;;19.90;62.50;;;;;;4975522;28;20476;-90
2023/02/24 11:29:20;;;;;;;7.37;6.20;;;19.90;61.50;;;;;;4975230;28;20445;-89
2023/02/24 11:32:07;;;;;;;6.90;6.13;;;20.00;61.60;;;;;;4975205;28;20435;-89
2023/02/24 11:34:48;;;;;;;8.40;6.13;;;20.00;61.50;;;;;;4975148;28;20485;-88
2023/02/24 11:37:37;;;;;;;5.70;5.10;;;20.10;61.60;;;;;;4979213;28;20455;-87
2023/02/24 11:40:10;;;;;;;11.40;5.63;;;20.10;61.40;;;;;;4991118;28;20444;-89
2023/02/24 11:42:40;;;;;;;10.70;9.80;;;20.10;61.50;;;;;;4993515;28;20809;-87
2023/02/24 11:45:21;;;;;;;26.97;20.53;;;20.20;61.40;;;;;;4993779;28;20530;-86
2023/02/24 11:47:53;;;;;;;19.10;17.60;;;20.30;93.80;;;;;;4994821;28;20463;-86
2023/02/24 11:50:32;;;;;;;19.23;16.60;;;20.30;96.90;;;;;;4994639;28;20459;-86
2023/02/24 11:53:05;;;;;;;16.17;14.77;;;20.40;61.40;;;;;;4995229;28;20900;-94
2023/02/24 11:55:41;;;;;;;17.57;15.90;;;20.50;61.50;;;;;;4996651;28;20502;-83
2023/02/24 11:58:14;;;;;;;21.77;15.70;;;;;;;;;;5016651;28;20472;-87
2023/02/24 12:00:45;;;;;;;17.50;15.63;;;;;;;;;;5016533;28;20931;-84
2023/02/24 12:03:17;;;;;;;17.90;14.77;;;;;;;;;;4994718;28;20444;-85
2023/02/24 12:05:49;;;;;;;24.90;14.03;;;;;;;;;;4994594;28;20458;-90
2023/02/24 12:08:23;;;;;;;29.27;15.00;;;;;;;;;;4994555;28;20448;-89
2023/02/24 12:10:52;;;;;;;12.40;10.30;;;;;;;;;;4996218;28;20486;-86
2023/02/24 12:13:21;;;;;;;14.57;13.00;;;;;;;;;;4995417;28;20444;-87
2023/02/24 12:15:51;;;;;;;13.43;12.00;;;;;;;;;;4993689;28;20548;-87
2023/02/24 12:18:20;;;;;;;11.47;10.37;;;;;;;;;;4977349;28;20448;-86
2023/02/24 12:20:51;;;;;;;15.73;10.77;;;;;;;;;;4994099;28;20444;-87
2023/02/24 12:23:21;;;;;;;12.43;9.23;;;;;;;;;;4994283;28;20448;-87
2023/02/24 12:25:54;;;;;;;13.73;10.20;;;;;;;;;;4994561;28;20501;-84
2023/02/24 12:28:29;;;;;;;12.33;9.13;;;;;;;;;;4994969;28;20440;-85
2023/02/24 12:31:01;;;;;;;14.53;9.47;;;;;;;;;;4994014;28;20450;-84
2023/02/24 12:33:42;;;;;;;14.40;9.57;;;;;;;;;;4993882;28;20454;-87
2023/02/24 12:36:15;;;;;;;10.10;8.27;;;;;;;;;;4976948;28;20488;-88
2023/02/24 12:38:49;;;;;;;17.50;8.90;;;;;;;;;;4993491;28;20506;-86
2023/02/24 12:41:25;;;;;;;8.77;7.87;;;;;;;;;;4995844;28;20931;-90
2023/02/24 12:43:55;;;;;;;9.53;8.20;;;;;;;;;;4993307;28;20440;-89
2023/02/24 12:46:23;;;;;;;15.53;7.80;;;;;;;;;;4993972;28;20825;-89
2023/02/24 12:49:10;;;;;;;7.40;6.73;;;;;;;;;;4993935;28;20446;-89
2023/02/24 12:51:42;;;;;;;18.23;8.03;;;;;;;;;;4993902;28;20807;-89
2023/02/24 12:54:13;;;;;;;7.27;6.57;;;;;;;;;;4995145;28;20441;-89
2023/02/24 12:56:47;;;;;;;7.93;7.30;;;;;;;;;;4997247;28;20448;-89
2023/02/24 12:59:17;;;;;;;9.07;6.10;;;;;;;;;;4997896;28;20440;-89
2023/02/24 13:01:48;;;;;;;13.13;7.80;;;;;;;;;;4997757;28;20433;-89
2023/02/24 13:04:24;;;;;;;6.20;5.80;;;;;;;;;;4997599;28;20443;-89
2023/02/24 13:07:02;;;;;;;8.00;6.30;;;;;;;;;;4997243;28;20432;-89
2023/02/24 13:09:41;;;;;;;8.90;5.63;;;;;;;;;;4996923;28;20953;-87
2023/02/24 13:12:13;;;;;;;11.93;6.07;;;;;;;;;;4996467;28;20504;-89
2023/02/24 13:14:41;;;;;;;7.07;6.47;;;;;;;;;;4997369;28;20486;-90
2023/02/24 13:17:22;;;;;;;6.20;4.90;;;;;;;;;;5019234;28;20479;-85
2023/02/24 13:19:51;;;;;;;5.40;4.73;;;;;;;;;;4999761;28;20439;-86
2023/02/24 13:22:23;;;;;;;6.30;5.60;;;;;;;;;;4997081;28;20452;-87
2023/02/24 13:24:57;;;;;;;8.97;4.83;;;;;;;;;;4996621;28;20452;-85
2023/02/24 13:27:25;;;;;;;8.17;5.07;;;;;;;;;;4996871;28;20456;-87
2023/02/24 13:29:53;;;;;;;5.23;4.63;;;;;;;;;;4996932;28;20800;-85
2023/02/24 13:32:31;;;;;;;7.83;5.00;;;;;;;;;;4996786;28;20475;-90
2023/02/24 13:34:59;;;;;;;8.23;4.63;;;;;;;;;;4993640;28;20868;-88
2023/02/24 13:37:29;;;;;;;7.00;4.17;;;;;;;;;;4996227;28;20467;-88
2023/02/24 13:39:56;;;;;;;5.90;4.70;;;;;;;;;;4996720;28;20440;-85
2023/02/24 13:42:25;;;;;;;6.83;4.27;;;;;;;;;;4996455;28;20441;-89
2023/02/24 13:44:53;;;;;;;5.07;4.60;;;;;;;;;;4996087;28;20444;-88
2023/02/24 13:47:37;;;;;;;5.80;4.40;;;;;;;;;;4996235;28;20794;-86
2023/02/24 13:50:17;;;;;;;6.23;4.10;;;;;;;;;;4996616;28;20436;-90
2023/02/24 13:52:52;;;;;;;6.17;3.77;;;;;;;;;;4996727;28;21035;-89
2023/02/24 13:55:25;;;;;;;9.63;3.77;;;;;;;;;;4996519;28;20494;-89
